Time;durP1;ratioP1;P1;durP2;ratioP2;P2;SDS_P1;SDS_P2;PMS_P1;PMS_P2;Temp;Humidity;BMP_temperature;BMP_pressure;BME280_temperature;BME280_humidity;BME280_pressure;Samples;Min_cycle;Max_cycle;Signal;HPM_P1;HPM_P2
2021/04/03 00:00:07;;;;;;;0.63;0.63;;;15.30;57.80;;;;;;4213170;28;20464;-44
2021/04/03 00:02:28;;;;;;;2.00;0.88;;;15.30;57.80;;;;;;4214163;28;20048;-44
2021/04/03 00:04:49;;;;;;;0.00;0.00;;;15.20;57.70;;;;;;4214306;28;20525;-48
2021/04/03 00:07:10;;;;;;;0.00;0.00;;;15.30;57.90;;;;;;4214039;28;20052;-47
2021/04/03 00:09:32;;;;;;;1.55;1.08;;;15.20;57.90;;;;;;4213904;28;20070;-44
2021/04/03 00:11:53;;;;;;;0.00;0.00;;;15.20;58.00;;;;;;4207817;28;20052;-44
2021/04/03 00:14:14;;;;;;;0.10;0.10;;;15.10;58.10;;;;;;4213914;28;20060;-45
2021/04/03 00:16:36;;;;;;;;;;;15.10;58.30;;;;;;4214354;28;20155;-44
2021/04/03 00:18:57;;;;;;;0.43;0.43;;;15.10;58.30;;;;;;4213774;28;19927;-43
2021/04/03 00:21:17;;;;;;;1.38;1.27;;;15.20;58.10;;;;;;4213981;28;20113;-44
2021/04/03 00:23:39;;;;;;;0.10;0.10;;;15.30;58.10;;;;;;4213906;28;20087;-46
2021/04/03 00:26:00;;;;;;;0.00;0.00;;;15.30;58.00;;;;;;4213794;28;20453;-43
2021/04/03 00:28:21;;;;;;;0.00;0.00;;;15.30;58.10;;;;;;4213400;28;20101;-45
2021/04/03 00:30:43;;;;;;;0.20;0.20;;;15.30;58.10;;;;;;4213853;28;20478;-44
2021/04/03 00:33:06;;;;;;;0.25;0.25;;;15.30;58.10;;;;;;4213446;28;20059;-45
2021/04/03 00:35:29;;;;;;;2.83;2.10;;;15.30;58.00;;;;;;4213131;28;20105;-45
2021/04/03 00:37:51;;;;;;;0.13;0.13;;;15.30;58.20;;;;;;4213762;28;20055;-44
2021/04/03 00:40:15;;;;;;;0.00;0.00;;;15.40;58.00;;;;;;4213560;28;20417;-44
2021/04/03 00:42:36;;;;;;;1.17;1.08;;;15.40;58.10;;;;;;4213543;28;20055;-50
2021/04/03 00:44:58;;;;;;;0.00;0.00;;;15.40;57.90;;;;;;4213576;28;20062;-45
2021/04/03 00:47:19;;;;;;;0.45;0.45;;;15.50;58.00;;;;;;4211154;28;20055;-49
2021/04/03 00:49:42;;;;;;;0.52;0.52;;;15.50;57.90;;;;;;4213619;28;20058;-50
2021/04/03 00:52:06;;;;;;;0.00;0.00;;;15.50;58.00;;;;;;4213468;28;20056;-48
2021/04/03 00:54:32;;;;;;;1.17;1.08;;;15.50;58.10;;;;;;4213333;28;20611;-49
2021/04/03 00:56:53;;;;;;;0.08;0.08;;;15.50;58.10;;;;;;4211398;28;20453;-43
2021/04/03 00:59:15;;;;;;;;;;;15.50;58.00;;;;;;4213419;28;20056;-43
2021/04/03 01:01:36;;;;;;;0.00;0.00;;;15.50;58.00;;;;;;4213406;28;20377;-43
2021/04/03 01:03:57;;;;;;;0.10;0.10;;;15.60;58.00;;;;;;4211907;28;20417;-45
2021/04/03 01:06:19;;;;;;;0.40;0.40;;;15.80;57.70;;;;;;4211986;28;20137;-44
2021/04/03 01:08:40;;;;;;;0.00;0.00;;;15.80;57.40;;;;;;4213044;28;20052;-44
2021/04/03 01:11:03;;;;;;;0.00;0.00;;;15.90;57.40;;;;;;4212944;28;20062;-46
2021/04/03 01:13:34;;;;;;;0.00;0.00;;;15.80;57.40;;;;;;4213024;28;20142;-44
2021/04/03 01:16:08;;;;;;;0.10;0.10;;;15.90;57.50;;;;;;4213220;28;20052;-46
2021/04/03 01:18:41;;;;;;;0.25;0.25;;;15.90;58.10;;;;;;4212777;28;20056;-44
2021/04/03 01:21:06;;;;;;;0.68;0.52;;;15.90;57.50;;;;;;4212797;28;20044;-44
2021/04/03 01:23:58;;;;;;;0.00;0.00;;;15.90;57.60;;;;;;4211860;28;20048;-44
2021/04/03 01:27:09;;;;;;;0.22;0.22;;;15.80;57.80;;;;;;4211922;28;20071;-45
2021/04/03 01:30:04;;;;;;;0.00;0.00;;;15.70;58.00;;;;;;4203752;28;20072;-46
2021/04/03 01:32:38;;;;;;;0.38;0.38;;;15.60;58.30;;;;;;4212158;28;20180;-45
2021/04/03 01:35:01;;;;;;;1.60;1.17;;;15.60;58.50;;;;;;4212611;28;20487;-43
2021/04/03 01:37:24;;;;;;;0.00;0.00;;;15.50;58.80;;;;;;4212887;28;20056;-44
2021/04/03 01:39:50;;;;;;;0.47;0.20;;;15.50;58.90;;;;;;4212366;28;20048;-43
2021/04/03 01:42:18;;;;;;;0.00;0.00;;;15.40;59.10;;;;;;4211775;28;20055;-44
2021/04/03 01:44:44;;;;;;;0.00;0.00;;;15.40;59.20;;;;;;4212219;28;20422;-45
2021/04/03 01:47:06;;;;;;;0.00;0.00;;;15.40;59.20;;;;;;4211010;28;20055;-44
2021/04/03 01:49:28;;;;;;;0.30;0.30;;;15.50;59.30;;;;;;4195919;28;20059;-47
2021/04/03 01:51:50;;;;;;;6.03;3.75;;;15.60;59.00;;;;;;4195906;28;20049;-44
2021/04/03 01:54:16;;;;;;;0.00;0.00;;;15.80;58.60;;;;;;4197133;28;20519;-51
2021/04/03 01:56:41;;;;;;;0.22;0.10;;;16.00;58.30;;;;;;4194797;28;20108;-51
2021/04/03 01:59:06;;;;;;;0.00;0.00;;;16.10;58.10;;;;;;4194721;28;20063;-46
2021/04/03 02:01:29;;;;;;;0.17;0.17;;;16.10;58.00;;;;;;4194545;28;20055;-45
2021/04/03 02:03:57;;;;;;;0.10;0.10;;;16.00;58.70;;;;;;4211992;28;20040;-47
2021/04/03 02:06:20;;;;;;;0.15;0.15;;;16.00;58.20;;;;;;4211117;28;20048;-46
2021/04/03 02:08:46;;;;;;;2.30;1.55;;;16.00;58.30;;;;;;4212366;28;20814;-47
2021/04/03 02:11:19;;;;;;;0.17;0.17;;;16.00;58.30;;;;;;4194582;28;20052;-47
2021/04/03 02:13:43;;;;;;;0.00;0.00;;;16.00;58.30;;;;;;4194286;28;20473;-43
2021/04/03 02:16:05;;;;;;;;;;;16.00;58.50;;;;;;4209479;28;20060;-45
2021/04/03 02:18:30;;;;;;;0.10;0.10;;;15.90;58.50;;;;;;4208207;28;19927;-44
2021/04/03 02:20:53;;;;;;;0.43;0.43;;;15.90;58.50;;;;;;4212406;28;20056;-44
2021/04/03 02:23:14;;;;;;;1.13;1.13;;;15.90;58.60;;;;;;4212301;28;20055;-44
2021/04/03 02:25:37;;;;;;;0.32;0.32;;;15.90;58.70;;;;;;4210751;28;20052;-43
2021/04/03 02:27:58;;;;;;;0.05;0.05;;;15.90;58.80;;;;;;4211211;28;20415;-44
2021/04/03 02:30:27;;;;;;;0.35;0.35;;;15.90;58.90;;;;;;4211307;28;20052;-44
2021/04/03 02:32:50;;;;;;;0.10;0.10;;;15.80;58.80;;;;;;4211656;28;20414;-45
2021/04/03 02:35:13;;;;;;;0.00;0.00;;;15.90;59.00;;;;;;4210995;28;20059;-43
2021/04/03 02:37:37;;;;;;;0.75;0.75;;;15.80;59.00;;;;;;4211093;28;20586;-43
2021/04/03 02:39:59;;;;;;;0.00;0.00;;;15.80;59.10;;;;;;4212045;28;20059;-43
2021/04/03 02:42:23;;;;;;;0.10;0.10;;;15.80;59.10;;;;;;4211900;28;20044;-45
2021/04/03 02:44:51;;;;;;;1.45;1.08;;;15.80;59.00;;;;;;4211661;28;20059;-46
2021/04/03 02:47:17;;;;;;;0.00;0.00;;;15.90;58.80;;;;;;4212080;28;20195;-43
2021/04/03 02:49:46;;;;;;;0.00;0.00;;;15.90;58.70;;;;;;4212001;28;20140;-45
2021/04/03 02:52:11;;;;;;;0.10;0.10;;;15.90;58.70;;;;;;4211047;28;20437;-44
2021/04/03 02:54:36;;;;;;;0.00;0.00;;;15.90;58.80;;;;;;4211607;28;20052;-44
2021/04/03 02:57:00;;;;;;;0.08;0.08;;;15.90;58.90;;;;;;4210375;28;20056;-43
2021/04/03 02:59:27;;;;;;;0.00;0.00;;;15.80;59.00;;;;;;4205088;28;20063;-44
2021/04/03 03:01:52;;;;;;;0.00;0.00;;;15.80;59.00;;;;;;4210464;28;20529;-45
2021/04/03 03:04:15;;;;;;;0.55;0.55;;;15.80;59.00;;;;;;4211886;28;20547;-44
2021/04/03 03:06:37;;;;;;;0.00;0.00;;;15.80;59.10;;;;;;4211960;28;20135;-44
2021/04/03 03:09:02;;;;;;;0.10;0.10;;;15.80;59.20;;;;;;4211899;28;20128;-45
2021/04/03 03:11:27;;;;;;;0.00;0.00;;;15.80;59.20;;;;;;4211867;28;20663;-44
2021/04/03 03:13:53;;;;;;;0.28;0.28;;;15.80;59.20;;;;;;4194929;28;20087;-45
2021/04/03 03:16:15;;;;;;;0.00;0.00;;;15.80;59.10;;;;;;4195279;28;20060;-44
2021/04/03 03:18:38;;;;;;;0.00;0.00;;;15.80;59.10;;;;;;4211194;28;20502;-44
2021/04/03 03:21:00;;;;;;;0.08;0.08;;;15.80;59.30;;;;;;4213976;28;20076;-45
2021/04/03 03:23:22;;;;;;;0.45;0.45;;;15.70;59.30;;;;;;4213713;28;20067;-43
2021/04/03 03:25:43;;;;;;;0.00;0.00;;;15.70;59.50;;;;;;4214423;28;20059;-44
2021/04/03 03:28:06;;;;;;;;;;;15.70;59.60;;;;;;4214213;28;20128;-44
2021/04/03 03:30:28;;;;;;;1.00;0.90;;;15.80;59.40;;;;;;4214785;28;20435;-44
2021/04/03 03:32:52;;;;;;;0.30;0.30;;;16.00;58.90;;;;;;4213232;28;20138;-44
2021/04/03 03:35:14;;;;;;;2.15;0.35;;;16.20;58.50;;;;;;4214495;28;20062;-44
2021/04/03 03:37:36;;;;;;;0.00;0.00;;;16.20;58.20;;;;;;4214628;28;20079;-44
2021/04/03 03:39:58;;;;;;;0.05;0.05;;;16.30;58.20;;;;;;4214724;28;20126;-44
2021/04/03 03:42:27;;;;;;;0.08;0.08;;;16.30;58.10;;;;;;4213183;28;20105;-44
2021/04/03 03:44:51;;;;;;;0.00;0.00;;;16.30;58.10;;;;;;4213587;28;20052;-50
2021/04/03 03:47:13;;;;;;;0.30;0.30;;;16.30;58.20;;;;;;4202728;28;20048;-44
2021/04/03 03:49:37;;;;;;;0.30;0.30;;;16.20;58.20;;;;;;4212883;28;20423;-44
2021/04/03 03:51:58;;;;;;;;;;;16.20;58.30;;;;;;4198234;28;20057;-46
2021/04/03 03:54:19;;;;;;;0.00;0.00;;;16.20;58.50;;;;;;4205645;28;19920;-46
2021/04/03 03:56:40;;;;;;;;;;;16.10;58.60;;;;;;4214885;28;20434;-44
2021/04/03 03:59:03;;;;;;;0.10;0.10;;;16.10;58.70;;;;;;4213270;28;19927;-44
2021/04/03 04:01:26;;;;;;;1.13;1.05;;;16.10;58.70;;;;;;4213937;28;20059;-45
2021/04/03 04:03:48;;;;;;;0.20;0.20;;;16.00;58.90;;;;;;4196426;28;20106;-46
2021/04/03 04:06:13;;;;;;;1.40;0.15;;;16.00;59.10;;;;;;4210075;28;20052;-45
2021/04/03 04:08:37;;;;;;;0.00;0.00;;;15.90;59.10;;;;;;4213859;28;20055;-44
2021/04/03 04:11:05;;;;;;;0.00;0.00;;;16.00;59.10;;;;;;4213089;28;20055;-44
2021/04/03 04:13:26;;;;;;;;;;;16.00;59.20;;;;;;4212852;28;20237;-44
2021/04/03 04:15:48;;;;;;;0.00;0.00;;;16.00;59.10;;;;;;4213848;28;19997;-44
2021/04/03 04:18:11;;;;;;;0.00;0.00;;;15.90;59.10;;;;;;4212844;28;20048;-44
2021/04/03 04:20:32;;;;;;;0.10;0.10;;;16.00;59.10;;;;;;4213948;28;20118;-43
2021/04/03 04:22:58;;;;;;;0.00;0.00;;;16.20;58.60;;;;;;4212845;28;20175;-44
2021/04/03 04:25:24;;;;;;;0.22;0.22;;;16.40;58.10;;;;;;4212550;28;20199;-44
2021/04/03 04:27:45;;;;;;;;;;;16.50;57.80;;;;;;4213204;28;20098;-45
2021/04/03 04:30:12;;;;;;;2.17;1.27;;;16.50;57.70;;;;;;4213847;28;20021;-48
2021/04/03 04:32:43;;;;;;;0.00;0.00;;;16.50;57.80;;;;;;4213541;28;20055;-47
2021/04/03 04:35:11;;;;;;;5.57;1.30;;;16.50;57.90;;;;;;4212258;28;21087;-46
2021/04/03 04:37:33;;;;;;;0.00;0.00;;;16.50;58.00;;;;;;4212430;28;20056;-44
2021/04/03 04:39:54;;;;;;;0.00;0.00;;;16.40;58.00;;;;;;4213661;28;20465;-44
2021/04/03 04:42:18;;;;;;;0.15;0.15;;;16.40;58.10;;;;;;4213771;28;20048;-44
2021/04/03 04:44:47;;;;;;;0.00;0.00;;;16.40;58.30;;;;;;4212396;28;20051;-44
2021/04/03 04:47:08;;;;;;;0.00;0.00;;;16.30;58.40;;;;;;4213490;28;20540;-45
2021/04/03 04:49:30;;;;;;;0.20;0.20;;;16.20;58.60;;;;;;4212039;28;20566;-44
2021/04/03 04:51:52;;;;;;;;;;;16.10;59.60;;;;;;4212863;28;20048;-45
2021/04/03 04:54:17;;;;;;;0.00;0.00;;;16.10;58.90;;;;;;4213500;28;20296;-51
2021/04/03 04:56:41;;;;;;;0.00;0.00;;;16.10;59.10;;;;;;4213229;28;20044;-47
2021/04/03 04:59:02;;;;;;;;;;;16.00;59.20;;;;;;4212873;28;20052;-49
2021/04/03 05:01:28;;;;;;;1.08;1.08;;;16.00;59.40;;;;;;4212015;28;20014;-52
2021/04/03 05:03:51;;;;;;;0.08;0.08;;;16.00;60.40;;;;;;4212248;28;20080;-47
2021/04/03 05:06:11;;;;;;;0.00;0.00;;;16.00;59.50;;;;;;4213009;28;20123;-44
2021/04/03 05:08:33;;;;;;;1.65;1.55;;;16.10;59.40;;;;;;4211878;28;20120;-47
2021/04/03 05:10:54;;;;;;;0.32;0.32;;;16.20;59.20;;;;;;4213288;28;20332;-49
2021/04/03 05:13:15;;;;;;;0.00;0.00;;;16.30;59.00;;;;;;4212933;28;20330;-49
2021/04/03 05:15:37;;;;;;;0.00;0.00;;;16.50;58.40;;;;;;4213184;28;20414;-44
2021/04/03 05:17:58;;;;;;;0.00;0.00;;;16.60;58.00;;;;;;4213392;28;20048;-46
2021/04/03 05:20:19;;;;;;;0.00;0.00;;;16.70;57.90;;;;;;4213224;28;20055;-48
2021/04/03 05:22:40;;;;;;;;;;;16.60;57.90;;;;;;4213106;28;20047;-50
2021/04/03 05:25:02;;;;;;;0.00;0.00;;;16.60;58.10;;;;;;4213376;28;19946;-47
2021/04/03 05:27:23;;;;;;;0.00;0.00;;;16.50;58.20;;;;;;4213023;28;20052;-49
2021/04/03 05:29:44;;;;;;;0.08;0.08;;;16.50;58.50;;;;;;4213047;28;20120;-45
2021/04/03 05:32:06;;;;;;;0.00;0.00;;;16.40;58.80;;;;;;4212744;28;20056;-46
2021/04/03 05:34:27;;;;;;;25.23;0.98;;;16.40;59.20;;;;;;4212434;28;20312;-49
2021/04/03 05:37:08;;;;;;;0.10;0.10;;;16.40;59.40;;;;;;4200502;28;20063;-45
2021/04/03 05:39:28;;;;;;;0.10;0.10;;;16.30;59.50;;;;;;4212934;28;20160;-44
2021/04/03 05:41:50;;;;;;;0.10;0.10;;;16.30;59.60;;;;;;4212859;28;20055;-44
2021/04/03 05:44:13;;;;;;;0.20;0.20;;;16.20;59.60;;;;;;4212235;28;20483;-46
2021/04/03 05:46:36;;;;;;;0.10;0.10;;;16.20;59.70;;;;;;4212439;28;20040;-48
2021/04/03 05:48:59;;;;;;;0.25;0.25;;;16.20;59.80;;;;;;4211655;28;20445;-46
2021/04/03 05:51:21;;;;;;;0.43;0.43;;;16.20;59.80;;;;;;4212816;28;20131;-46
2021/04/03 05:53:42;;;;;;;0.00;0.00;;;16.10;60.00;;;;;;4212679;28;20124;-44
2021/04/03 05:56:04;;;;;;;0.40;0.40;;;16.10;60.20;;;;;;4212436;28;20456;-45
2021/04/03 05:58:26;;;;;;;0.00;0.00;;;16.00;60.40;;;;;;4212446;28;20642;-44
2021/04/03 06:00:47;;;;;;;0.40;0.40;;;16.00;60.30;;;;;;4212184;28;20048;-45
2021/04/03 06:03:08;;;;;;;0.40;0.38;;;16.20;59.90;;;;;;4212638;28;20059;-45
2021/04/03 06:05:31;;;;;;;0.00;0.00;;;16.40;59.50;;;;;;4195881;28;20139;-50
2021/04/03 06:07:53;;;;;;;1.95;1.27;;;16.50;59.10;;;;;;4195884;28;20052;-44
2021/04/03 06:10:14;;;;;;;0.80;0.80;;;16.50;58.90;;;;;;4195878;28;20056;-45
2021/04/03 06:12:43;;;;;;;0.00;0.00;;;16.50;58.90;;;;;;4208837;28;20056;-44
2021/04/03 06:15:05;;;;;;;0.00;0.00;;;16.60;59.00;;;;;;4212373;28;20517;-46
2021/04/03 06:17:26;;;;;;;0.00;0.00;;;16.60;58.90;;;;;;4212239;28;20105;-45
2021/04/03 06:19:48;;;;;;;;;;;16.60;58.90;;;;;;4212592;28;20060;-44
2021/04/03 06:22:08;;;;;;;0.57;0.57;;;16.50;59.10;;;;;;4195715;28;20332;-46
2021/04/03 06:24:33;;;;;;;4.20;0.75;;;16.50;59.30;;;;;;4205927;28;20048;-47
2021/04/03 06:27:01;;;;;;;0.00;0.00;;;16.40;59.50;;;;;;4212386;28;20060;-44
2021/04/03 06:29:24;;;;;;;0.35;0.35;;;16.30;59.50;;;;;;4212355;28;20505;-48
2021/04/03 06:31:51;;;;;;;1.80;1.70;;;16.30;59.60;;;;;;4210259;28;20052;-43
2021/04/03 06:34:29;;;;;;;2.55;2.38;;;16.30;59.70;;;;;;4210209;28;20052;-45
2021/04/03 06:36:50;;;;;;;0.20;0.20;;;16.30;59.80;;;;;;4210016;28;20482;-44
2021/04/03 06:39:10;;;;;;;2.17;1.98;;;16.30;61.20;;;;;;4211741;28;20059;-52
2021/04/03 06:41:32;;;;;;;0.00;0.00;;;16.30;62.60;;;;;;4212072;28;20052;-43
2021/04/03 06:44:03;;;;;;;;;;;16.40;62.60;;;;;;4209897;28;20051;-43
2021/04/03 06:46:25;;;;;;;2.33;1.45;;;16.50;63.10;;;;;;4211044;28;19930;-43
2021/04/03 06:48:48;;;;;;;0.20;0.20;;;16.50;62.60;;;;;;4212062;28;20127;-44
2021/04/03 06:51:09;;;;;;;2.05;1.80;;;16.40;63.90;;;;;;4211369;28;20072;-44
2021/04/03 06:53:30;;;;;;;0.00;0.00;;;16.40;63.10;;;;;;4210002;28;20082;-45
2021/04/03 06:55:52;;;;;;;;;;;16.30;63.50;;;;;;4214447;28;20048;-44
2021/04/03 06:58:15;;;;;;;4.85;1.98;;;16.20;63.30;;;;;;4213713;28;20325;-47
2021/04/03 07:00:37;;;;;;;0.95;0.95;;;16.10;63.30;;;;;;4214433;28;20055;-43
2021/04/03 07:03:01;;;;;;;1.80;1.52;;;16.00;64.50;;;;;;4214794;28;20059;-45
2021/04/03 07:05:24;;;;;;;1.08;1.08;;;15.90;66.30;;;;;;4214900;28;20055;-46
2021/04/03 07:07:46;;;;;;;0.00;0.00;;;15.80;66.60;;;;;;4212098;28;20063;-44
2021/04/03 07:10:09;;;;;;;0.03;0.03;;;15.80;67.10;;;;;;4214708;28;20498;-44
2021/04/03 07:12:30;;;;;;;0.10;0.10;;;15.70;66.80;;;;;;4214021;28;20048;-45
2021/04/03 07:14:52;;;;;;;0.52;0.52;;;15.60;67.00;;;;;;4214669;28;20040;-50
2021/04/03 07:17:15;;;;;;;4.10;1.67;;;15.50;67.00;;;;;;4214964;28;20056;-48
2021/04/03 07:19:37;;;;;;;0.00;0.00;;;15.40;67.00;;;;;;4211269;28;20059;-49
2021/04/03 07:21:59;;;;;;;0.00;0.00;;;15.40;66.80;;;;;;4209775;28;20055;-47
2021/04/03 07:24:22;;;;;;;0.00;0.00;;;15.30;66.60;;;;;;4212082;28;20079;-45
2021/04/03 07:26:45;;;;;;;0.63;0.63;;;15.30;66.60;;;;;;4209134;28;20052;-44
2021/04/03 07:29:06;;;;;;;0.43;0.43;;;15.20;66.40;;;;;;4213877;28;20456;-44
2021/04/03 07:31:39;;;;;;;0.10;0.10;;;15.20;66.40;;;;;;4214010;28;20048;-45
2021/04/03 07:34:00;;;;;;;0.20;0.20;;;15.10;66.20;;;;;;4197671;28;20056;-44
2021/04/03 07:36:33;;;;;;;0.00;0.00;;;15.10;66.10;;;;;;4210856;28;20056;-45
2021/04/03 07:38:55;;;;;;;0.08;0.08;;;15.00;66.00;;;;;;4214363;28;20129;-47
2021/04/03 07:41:17;;;;;;;0.05;0.05;;;15.10;66.20;;;;;;4214567;28;20075;-46
2021/04/03 07:43:41;;;;;;;13.50;2.28;;;15.10;66.40;;;;;;4211532;28;20460;-46
2021/04/03 07:46:08;;;;;;;0.10;0.10;;;15.10;67.00;;;;;;4213944;28;20546;-46
2021/04/03 07:48:43;;;;;;;6.93;3.88;;;15.10;67.30;;;;;;4214415;28;20063;-45
2021/04/03 07:51:05;;;;;;;4.38;0.90;;;15.10;67.90;;;;;;4213770;28;20075;-45
2021/04/03 07:53:35;;;;;;;1.10;1.10;;;15.10;67.90;;;;;;4214056;28;20078;-46
2021/04/03 07:55:58;;;;;;;0.03;0.03;;;15.00;67.40;;;;;;4212098;28;20052;-45
2021/04/03 07:58:26;;;;;;;0.00;0.00;;;15.00;67.30;;;;;;4213257;28;20054;-44
2021/04/03 08:00:48;;;;;;;0.98;0.90;;;14.90;66.80;;;;;;4207922;28;20059;-45
2021/04/03 08:03:08;;;;;;;0.95;0.95;;;14.90;66.90;;;;;;4196360;28;20045;-46
2021/04/03 08:05:30;;;;;;;4.95;2.28;;;14.90;67.00;;;;;;4199411;28;20117;-44
2021/04/03 08:07:53;;;;;;;1.67;1.58;;;14.80;67.20;;;;;;4212202;28;20063;-43
2021/04/03 08:10:20;;;;;;;0.00;0.00;;;14.80;67.50;;;;;;4214121;28;20044;-44
2021/04/03 08:12:42;;;;;;;0.93;0.93;;;14.80;67.20;;;;;;4209013;28;20040;-44
2021/04/03 08:15:04;;;;;;;0.10;0.10;;;14.70;66.70;;;;;;4197080;28;20495;-45
2021/04/03 08:17:26;;;;;;;0.00;0.00;;;14.70;66.90;;;;;;4196791;28;20130;-44
2021/04/03 08:19:49;;;;;;;0.00;0.00;;;14.70;66.70;;;;;;4196366;28;20048;-44
2021/04/03 08:22:10;;;;;;;0.10;0.10;;;14.70;66.70;;;;;;4196701;28;20463;-44
2021/04/03 08:24:31;;;;;;;0.00;0.00;;;14.70;66.50;;;;;;4197221;28;20572;-43
2021/04/03 08:26:53;;;;;;;0.00;0.00;;;14.70;67.00;;;;;;4196315;28;20148;-46
2021/04/03 08:29:22;;;;;;;0.77;0.77;;;14.80;67.40;;;;;;4196516;28;20079;-44
2021/04/03 08:31:48;;;;;;;0.00;0.00;;;14.80;67.50;;;;;;4196553;28;20053;-44
2021/04/03 08:34:09;;;;;;;0.03;0.03;;;14.90;67.50;;;;;;4196436;28;20052;-44
2021/04/03 08:36:33;;;;;;;0.00;0.00;;;14.90;67.50;;;;;;4195191;28;20052;-43
2021/04/03 08:38:57;;;;;;;0.32;0.20;;;14.90;67.10;;;;;;4196320;28;20052;-43
2021/04/03 08:41:21;;;;;;;0.00;0.00;;;14.90;67.00;;;;;;4196455;28;20133;-42
2021/04/03 08:43:42;;;;;;;4.30;1.80;;;14.90;67.00;;;;;;4195754;28;20055;-44
2021/04/03 08:46:09;;;;;;;2.47;2.17;;;14.90;67.00;;;;;;4180215;28;20056;-43
2021/04/03 08:48:38;;;;;;;0.08;0.08;;;14.90;66.60;;;;;;4184281;28;20041;-43
2021/04/03 08:50:59;;;;;;;0.70;0.70;;;14.90;66.30;;;;;;4195835;28;20553;-43
2021/04/03 08:53:21;;;;;;;0.82;0.82;;;14.90;66.30;;;;;;4196658;28;20574;-45
2021/04/03 08:55:42;;;;;;;0.52;0.52;;;14.90;66.10;;;;;;4196137;28;20578;-44
2021/04/03 08:58:04;;;;;;;0.05;0.05;;;14.90;65.90;;;;;;4195547;28;20515;-44
2021/04/03 09:00:26;;;;;;;2.65;1.45;;;14.90;65.90;;;;;;4195883;28;20118;-44
2021/04/03 09:02:48;;;;;;;;;;;14.90;66.10;;;;;;4192132;28;20522;-44
2021/04/03 09:05:11;;;;;;;0.00;0.00;;;14.90;66.20;;;;;;4195975;28;20359;-44
2021/04/03 09:07:33;;;;;;;0.05;0.05;;;14.90;66.00;;;;;;4196272;28;20525;-48
2021/04/03 09:10:04;;;;;;;0.00;0.00;;;14.90;66.10;;;;;;4181726;28;20427;-44
2021/04/03 09:12:29;;;;;;;0.00;0.00;;;15.00;66.40;;;;;;4195777;28;20499;-47
2021/04/03 09:14:53;;;;;;;0.30;0.30;;;15.30;65.90;;;;;;4195911;28;20056;-45
2021/04/03 09:17:19;;;;;;;0.00;0.00;;;15.50;64.80;;;;;;4195928;28;20044;-49
2021/04/03 09:19:40;;;;;;;0.00;0.00;;;15.80;64.10;;;;;;4195425;28;20130;-46
2021/04/03 09:22:02;;;;;;;0.00;0.00;;;16.00;63.50;;;;;;4179656;28;20048;-44
2021/04/03 09:24:35;;;;;;;0.00;0.00;;;16.20;62.70;;;;;;4181838;28;20132;-44
2021/04/03 09:26:56;;;;;;;2.05;1.00;;;16.40;61.80;;;;;;4194133;28;20143;-44
2021/04/03 09:29:17;;;;;;;6.53;1.15;;;16.70;60.60;;;;;;4195342;28;20074;-43
2021/04/03 09:31:42;;;;;;;0.43;0.43;;;16.90;59.50;;;;;;4195820;28;20044;-43
2021/04/03 09:34:04;;;;;;;3.22;0.75;;;17.10;59.00;;;;;;4195634;28;20503;-44
2021/04/03 09:36:26;;;;;;;0.20;0.20;;;17.20;58.50;;;;;;4195731;28;20564;-43
2021/04/03 09:38:48;;;;;;;0.15;0.15;;;17.40;58.40;;;;;;4195225;28;20052;-43
2021/04/03 09:41:22;;;;;;;0.00;0.00;;;17.50;58.20;;;;;;4195481;28;20501;-44
2021/04/03 09:43:44;;;;;;;0.00;0.00;;;17.50;58.00;;;;;;4191989;28;20048;-43
2021/04/03 09:46:05;;;;;;;0.00;0.00;;;17.60;57.90;;;;;;4195379;28;20054;-44
2021/04/03 09:48:26;;;;;;;0.15;0.15;;;17.70;57.60;;;;;;4193903;28;20052;-44
2021/04/03 09:50:47;;;;;;;0.00;0.00;;;17.80;57.60;;;;;;4196379;28;20052;-43
2021/04/03 09:53:11;;;;;;;0.00;0.00;;;17.80;57.60;;;;;;4195312;28;20056;-44
2021/04/03 09:55:33;;;;;;;0.10;0.10;;;17.80;57.80;;;;;;4185757;28;20052;-47
2021/04/03 09:57:54;;;;;;;0.10;0.10;;;17.70;57.80;;;;;;4195634;28;20053;-44
2021/04/03 10:00:16;;;;;;;0.30;0.30;;;17.60;57.80;;;;;;4195148;28;20053;-44
2021/04/03 10:02:37;;;;;;;0.08;0.08;;;17.60;57.80;;;;;;4195219;28;20747;-45
2021/04/03 10:04:58;;;;;;;0.00;0.00;;;17.60;57.60;;;;;;4195301;28;20052;-43
2021/04/03 10:07:19;;;;;;;0.38;0.38;;;17.50;57.90;;;;;;4195652;28;20465;-44
2021/04/03 10:09:41;;;;;;;0.32;0.13;;;17.40;58.10;;;;;;4194870;28;20076;-44
2021/04/03 10:12:02;;;;;;;0.40;0.40;;;17.40;58.30;;;;;;4194720;28;20064;-44
2021/04/03 10:14:24;;;;;;;0.00;0.00;;;17.30;58.50;;;;;;4208278;28;20113;-44
2021/04/03 10:16:45;;;;;;;0.30;0.30;;;17.30;58.40;;;;;;4212173;28;20468;-45
2021/04/03 10:19:07;;;;;;;0.52;0.52;;;17.40;58.00;;;;;;4211869;28;20090;-47
2021/04/03 10:21:28;;;;;;;0.00;0.00;;;17.50;57.50;;;;;;4212168;28;20052;-44
2021/04/03 10:23:49;;;;;;;;;;;17.60;57.30;;;;;;4212626;28;20052;-43
2021/04/03 10:26:11;;;;;;;0.60;0.60;;;17.60;57.30;;;;;;4211788;28;19931;-44
2021/04/03 10:28:33;;;;;;;0.00;0.00;;;17.50;57.40;;;;;;4211387;28;20302;-43
2021/04/03 10:30:54;;;;;;;1.20;1.08;;;17.50;57.40;;;;;;4213973;28;20055;-44
2021/04/03 10:33:15;;;;;;;;;;;17.40;57.60;;;;;;4206727;28;20056;-44
2021/04/03 10:35:36;;;;;;;1.45;0.73;;;17.30;57.30;;;;;;4215448;28;20023;-44
2021/04/03 10:37:57;;;;;;;0.00;0.00;;;17.20;57.60;;;;;;4213082;28;20052;-44
2021/04/03 10:40:19;;;;;;;2.72;1.02;;;17.10;57.80;;;;;;4214760;28;20060;-45
2021/04/03 10:42:42;;;;;;;0.63;0.63;;;17.10;58.20;;;;;;4215153;28;20113;-43
2021/04/03 10:45:04;;;;;;;0.00;0.00;;;16.90;58.40;;;;;;4198492;28;20058;-45
2021/04/03 10:47:27;;;;;;;0.10;0.10;;;16.90;58.70;;;;;;4211474;28;20048;-44
2021/04/03 10:49:48;;;;;;;0.43;0.43;;;16.90;59.10;;;;;;4214313;28;20047;-44
2021/04/03 10:52:09;;;;;;;0.00;0.00;;;16.80;59.10;;;;;;4215199;28;20087;-43
2021/04/03 10:54:30;;;;;;;0.43;0.43;;;16.80;59.00;;;;;;4215213;28;20168;-48
2021/04/03 10:56:51;;;;;;;0.38;0.38;;;16.70;59.00;;;;;;4215188;28;20060;-48
2021/04/03 10:59:13;;;;;;;0.43;0.43;;;16.70;59.30;;;;;;4214061;28;20422;-47
2021/04/03 11:01:34;;;;;;;6.85;0.70;;;16.60;59.10;;;;;;4214868;28;20075;-45
2021/04/03 11:03:56;;;;;;;0.00;0.00;;;16.60;59.20;;;;;;4215036;28;20044;-44
2021/04/03 11:06:17;;;;;;;0.10;0.10;;;16.70;59.00;;;;;;4214110;28;20056;-44
2021/04/03 11:08:38;;;;;;;0.00;0.00;;;16.90;58.40;;;;;;4198567;28;20052;-45
2021/04/03 11:10:59;;;;;;;0.28;0.28;;;17.00;57.50;;;;;;4198364;28;20080;-45
2021/04/03 11:13:20;;;;;;;;;;;17.00;57.40;;;;;;4203527;28;20051;-44
2021/04/03 11:15:42;;;;;;;2.03;1.80;;;17.00;57.40;;;;;;4214961;28;20370;-44
2021/04/03 11:18:05;;;;;;;12.10;1.88;;;17.00;57.40;;;;;;4214998;28;20298;-45
2021/04/03 11:20:27;;;;;;;0.10;0.10;;;16.90;57.60;;;;;;4213881;28;20052;-43
2021/04/03 11:22:49;;;;;;;0.95;0.90;;;16.90;57.60;;;;;;4214674;28;20048;-46
2021/04/03 11:25:10;;;;;;;;;;;16.90;57.80;;;;;;4215420;28;20056;-45
2021/04/03 11:27:31;;;;;;;0.88;0.88;;;16.80;57.90;;;;;;4214635;28;19927;-44
2021/04/03 11:29:52;;;;;;;0.00;0.00;;;16.80;57.80;;;;;;4214976;28;20048;-44
2021/04/03 11:32:14;;;;;;;0.00;0.00;;;16.70;58.00;;;;;;4214367;28;20548;-46
2021/04/03 11:34:35;;;;;;;0.00;0.00;;;16.60;58.00;;;;;;4214475;28;20052;-47
2021/04/03 11:36:56;;;;;;;0.00;0.00;;;16.50;57.90;;;;;;4214094;28;20133;-45
2021/04/03 11:39:16;;;;;;;0.32;0.32;;;16.50;58.10;;;;;;4214383;28;20063;-47
2021/04/03 11:41:37;;;;;;;1.33;1.27;;;16.50;58.40;;;;;;4213754;28;20071;-45
2021/04/03 11:43:59;;;;;;;2.28;1.65;;;16.50;58.20;;;;;;4214437;28;20052;-49
2021/04/03 11:46:22;;;;;;;0.30;0.30;;;16.60;58.00;;;;;;4214632;28;20055;-44
2021/04/03 11:48:43;;;;;;;0.98;0.70;;;16.60;57.90;;;;;;4214524;28;20059;-50
2021/04/03 11:51:05;;;;;;;0.08;0.08;;;16.60;57.90;;;;;;4206555;28;20624;-48
2021/04/03 11:53:26;;;;;;;0.25;0.25;;;16.60;57.90;;;;;;4214619;28;20062;-46
2021/04/03 11:55:47;;;;;;;0.00;0.00;;;16.60;57.80;;;;;;4213204;28;20055;-44
2021/04/03 11:58:08;;;;;;;;;;;16.50;57.90;;;;;;4214698;28;20048;-45
2021/04/03 12:00:30;;;;;;;0.43;0.43;;;16.50;57.40;;;;;;4214452;28;19920;-48
2021/04/03 12:02:50;;;;;;;0.00;0.00;;;16.50;57.30;;;;;;4214278;28;20055;-48
2021/04/03 12:05:13;;;;;;;1.05;1.00;;;16.40;57.50;;;;;;4214134;28;20075;-45
2021/04/03 12:07:38;;;;;;;0.00;0.00;;;16.40;58.00;;;;;;4214142;28;20063;-45
2021/04/03 12:09:59;;;;;;;0.00;0.00;;;16.40;58.20;;;;;;4212608;28;20921;-44
2021/04/03 12:12:23;;;;;;;14.85;0.82;;;16.40;58.10;;;;;;4213535;28;20131;-45
2021/04/03 12:14:44;;;;;;;2.10;0.63;;;16.50;57.90;;;;;;4200941;28;20078;-46
2021/04/03 12:17:05;;;;;;;0.00;0.00;;;16.50;58.00;;;;;;4213636;28;20051;-44
2021/04/03 12:19:27;;;;;;;1.10;0.52;;;16.60;57.70;;;;;;4212642;28;20549;-45
2021/04/03 12:21:48;;;;;;;0.00;0.00;;;16.60;57.70;;;;;;4213867;28;20555;-47
2021/04/03 12:24:10;;;;;;;0.28;0.28;;;16.70;57.60;;;;;;4213626;28;20062;-46
2021/04/03 12:26:31;;;;;;;;;;;16.60;57.40;;;;;;4213941;28;20052;-44
2021/04/03 12:28:52;;;;;;;0.00;0.00;;;16.60;57.50;;;;;;4213463;28;19924;-45
2021/04/03 12:31:14;;;;;;;0.30;0.30;;;16.60;57.30;;;;;;4213913;28;20063;-44